Terminal Aerodrome Forecast
Issued by NWS

Home | Current Version | Previous Version | Text Only | Print | Product List | Glossary On
Versions: 1 2 3 4 5 6 7 8 9 10 11 12 13 14 15 16 17 18 19 20 21
000
FTUS45 KBOU 211729
TAFAPA
TAF
KAPA 211729Z 2118/2218 02010G16KT P6SM FEW110
     FM212100 35011KT P6SM SCT100 BKN220
      TEMPO 2123/2203 VRB15G25KT
     FM220500 20010KT P6SM SCT110
     FM221600 02013G20KT P6SM FEW080 BKN200=

USA.gov is the U.S. government's official web portal to all federal, state and local government web resources and services.